sensor_id;sensor_type;location;lat;lon;timestamp;P1;durP1;ratioP1;P2;durP2;ratioP2
44981;SDS011;30716;41.740;-70.400;2022-09-25T00:00:43;3.00;;;1.83;;
44981;SDS011;30716;41.740;-70.400;2022-09-25T00:03:10;3.20;;;1.83;;
44981;SDS011;30716;41.740;-70.400;2022-09-25T00:05:38;3.50;;;2.28;;
44981;SDS011;30716;41.740;-70.400;2022-09-25T00:08:06;3.97;;;2.00;;
44981;SDS011;30716;41.740;-70.400;2022-09-25T00:10:32;3.92;;;2.05;;
44981;SDS011;30716;41.740;-70.400;2022-09-25T00:12:59;3.70;;;1.70;;
44981;SDS011;30716;41.740;-70.400;2022-09-25T00:15:25;4.28;;;1.77;;
44981;SDS011;30716;41.740;-70.400;2022-09-25T00:17:51;2.33;;;1.45;;
44981;SDS011;30716;41.740;-70.400;2022-09-25T00:20:18;3.08;;;1.65;;
44981;SDS011;30716;41.740;-70.400;2022-09-25T00:22:45;3.00;;;1.83;;
44981;SDS011;30716;41.740;-70.400;2022-09-25T00:25:12;3.47;;;2.05;;
44981;SDS011;30716;41.740;-70.400;2022-09-25T00:27:40;3.75;;;1.67;;
44981;SDS011;30716;41.740;-70.400;2022-09-25T00:30:07;3.13;;;2.20;;
44981;SDS011;30716;41.740;-70.400;2022-09-25T00:32:34;4.55;;;2.10;;
44981;SDS011;30716;41.740;-70.400;2022-09-25T00:35:01;2.78;;;1.60;;
44981;SDS011;30716;41.740;-70.400;2022-09-25T00:37:27;3.08;;;1.75;;
44981;SDS011;30716;41.740;-70.400;2022-09-25T00:39:53;3.30;;;2.05;;
44981;SDS011;30716;41.740;-70.400;2022-09-25T00:42:21;4.63;;;2.30;;
44981;SDS011;30716;41.740;-70.400;2022-09-25T00:47:19;3.25;;;1.65;;
44981;SDS011;30716;41.740;-70.400;2022-09-25T00:49:48;2.95;;;2.10;;
44981;SDS011;30716;41.740;-70.400;2022-09-25T00:52:14;3.78;;;1.80;;
44981;SDS011;30716;41.740;-70.400;2022-09-25T00:57:20;3.45;;;1.50;;
44981;SDS011;30716;41.740;-70.400;2022-09-25T00:59:51;2.38;;;1.50;;
44981;SDS011;30716;41.740;-70.400;2022-09-25T01:02:25;2.38;;;1.45;;
44981;SDS011;30716;41.740;-70.400;2022-09-25T01:04:58;3.75;;;1.85;;
44981;SDS011;30716;41.740;-70.400;2022-09-25T01:07:30;2.70;;;1.60;;
44981;SDS011;30716;41.740;-70.400;2022-09-25T01:10:03;3.70;;;1.67;;
44981;SDS011;30716;41.740;-70.400;2022-09-25T01:12:31;3.55;;;1.70;;
44981;SDS011;30716;41.740;-70.400;2022-09-25T01:14:57;4.53;;;2.13;;
44981;SDS011;30716;41.740;-70.400;2022-09-25T01:17:28;2.97;;;1.60;;
44981;SDS011;30716;41.740;-70.400;2022-09-25T01:31:23;2.88;;;1.40;;
44981;SDS011;30716;41.740;-70.400;2022-09-25T01:33:59;2.15;;;1.52;;
44981;SDS011;30716;41.740;-70.400;2022-09-25T01:36:40;2.58;;;1.40;;
44981;SDS011;30716;41.740;-70.400;2022-09-25T01:39:21;2.25;;;1.60;;
44981;SDS011;30716;41.740;-70.400;2022-09-25T01:44:35;2.45;;;1.40;;
44981;SDS011;30716;41.740;-70.400;2022-09-25T01:47:08;2.25;;;1.27;;
44981;SDS011;30716;41.740;-70.400;2022-09-25T01:49:46;2.40;;;1.30;;
44981;SDS011;30716;41.740;-70.400;2022-09-25T01:52:17;1.40;;;1.10;;
44981;SDS011;30716;41.740;-70.400;2022-09-25T01:54:50;1.90;;;1.48;;
44981;SDS011;30716;41.740;-70.400;2022-09-25T01:57:39;3.03;;;1.17;;
44981;SDS011;30716;41.740;-70.400;2022-09-25T02:00:19;1.90;;;1.02;;
44981;SDS011;30716;41.740;-70.400;2022-09-25T02:02:48;2.28;;;1.10;;
44981;SDS011;30716;41.740;-70.400;2022-09-25T02:05:29;2.10;;;1.37;;
44981;SDS011;30716;41.740;-70.400;2022-09-25T02:08:07;2.13;;;1.25;;
44981;SDS011;30716;41.740;-70.400;2022-09-25T02:11:00;2.85;;;1.60;;
44981;SDS011;30716;41.740;-70.400;2022-09-25T02:13:27;1.77;;;1.35;;
44981;SDS011;30716;41.740;-70.400;2022-09-25T02:16:21;2.37;;;1.40;;
44981;SDS011;30716;41.740;-70.400;2022-09-25T02:18:52;1.83;;;1.05;;
44981;SDS011;30716;41.740;-70.400;2022-09-25T02:26:45;2.03;;;1.10;;
44981;SDS011;30716;41.740;-70.400;2022-09-25T02:29:12;1.50;;;1.05;;
44981;SDS011;30716;41.740;-70.400;2022-09-25T02:31:50;1.92;;;1.20;;
44981;SDS011;30716;41.740;-70.400;2022-09-25T02:34:23;1.92;;;1.15;;
44981;SDS011;30716;41.740;-70.400;2022-09-25T02:36:50;1.42;;;1.02;;
44981;SDS011;30716;41.740;-70.400;2022-09-25T02:39:17;1.52;;;0.90;;
44981;SDS011;30716;41.740;-70.400;2022-09-25T02:41:49;1.98;;;1.10;;
44981;SDS011;30716;41.740;-70.400;2022-09-25T02:44:35;3.20;;;1.27;;
44981;SDS011;30716;41.740;-70.400;2022-09-25T02:49:54;2.30;;;1.10;;
44981;SDS011;30716;41.740;-70.400;2022-09-25T02:52:40;1.58;;;0.82;;
44981;SDS011;30716;41.740;-70.400;2022-09-25T02:55:33;1.77;;;0.95;;
44981;SDS011;30716;41.740;-70.400;2022-09-25T02:58:40;2.00;;;1.00;;
44981;SDS011;30716;41.740;-70.400;2022-09-25T03:01:15;1.83;;;1.10;;
44981;SDS011;30716;41.740;-70.400;2022-09-25T03:03:44;2.03;;;1.23;;
44981;SDS011;30716;41.740;-70.400;2022-09-25T03:06:13;1.33;;;0.90;;
44981;SDS011;30716;41.740;-70.400;2022-09-25T03:08:41;1.42;;;0.90;;
44981;SDS011;30716;41.740;-70.400;2022-09-25T03:11:15;1.73;;;0.93;;
44981;SDS011;30716;41.740;-70.400;2022-09-25T03:16:15;1.55;;;0.85;;
44981;SDS011;30716;41.740;-70.400;2022-09-25T03:18:45;1.73;;;1.00;;
44981;SDS011;30716;41.740;-70.400;2022-09-25T03:21:12;2.55;;;0.98;;
44981;SDS011;30716;41.740;-70.400;2022-09-25T03:23:38;1.75;;;0.90;;
44981;SDS011;30716;41.740;-70.400;2022-09-25T03:26:05;1.50;;;0.85;;
44981;SDS011;30716;41.740;-70.400;2022-09-25T03:28:31;2.35;;;0.80;;
44981;SDS011;30716;41.740;-70.400;2022-09-25T03:30:59;2.13;;;1.02;;
44981;SDS011;30716;41.740;-70.400;2022-09-25T03:33:28;2.00;;;0.90;;
44981;SDS011;30716;41.740;-70.400;2022-09-25T03:36:01;1.00;;;0.60;;
44981;SDS011;30716;41.740;-70.400;2022-09-25T03:38:29;1.73;;;0.80;;
44981;SDS011;30716;41.740;-70.400;2022-09-25T03:40:55;1.13;;;0.65;;
44981;SDS011;30716;41.740;-70.400;2022-09-25T03:43:21;2.10;;;1.00;;
44981;SDS011;30716;41.740;-70.400;2022-09-25T03:45:47;1.17;;;0.75;;
44981;SDS011;30716;41.740;-70.400;2022-09-25T03:48:13;1.67;;;0.77;;
44981;SDS011;30716;41.740;-70.400;2022-09-25T03:50:39;1.48;;;0.90;;
44981;SDS011;30716;41.740;-70.400;2022-09-25T03:53:06;1.63;;;0.70;;
44981;SDS011;30716;41.740;-70.400;2022-09-25T03:55:32;0.90;;;0.70;;
44981;SDS011;30716;41.740;-70.400;2022-09-25T03:57:58;1.55;;;0.90;;
44981;SDS011;30716;41.740;-70.400;2022-09-25T04:00:24;1.33;;;0.63;;
44981;SDS011;30716;41.740;-70.400;2022-09-25T04:02:50;1.30;;;0.80;;
44981;SDS011;30716;41.740;-70.400;2022-09-25T04:05:16;1.40;;;0.68;;
44981;SDS011;30716;41.740;-70.400;2022-09-25T04:07:44;1.15;;;0.60;;
44981;SDS011;30716;41.740;-70.400;2022-09-25T04:10:10;1.38;;;0.60;;
44981;SDS011;30716;41.740;-70.400;2022-09-25T04:12:36;1.77;;;0.98;;
44981;SDS011;30716;41.740;-70.400;2022-09-25T04:15:02;1.88;;;0.80;;
44981;SDS011;30716;41.740;-70.400;2022-09-25T04:17:30;1.42;;;0.57;;
44981;SDS011;30716;41.740;-70.400;2022-09-25T04:19:57;0.60;;;0.50;;
44981;SDS011;30716;41.740;-70.400;2022-09-25T04:22:23;1.52;;;0.77;;
44981;SDS011;30716;41.740;-70.400;2022-09-25T04:24:49;0.85;;;0.50;;
44981;SDS011;30716;41.740;-70.400;2022-09-25T04:27:16;1.13;;;0.60;;
44981;SDS011;30716;41.740;-70.400;2022-09-25T04:29:45;0.93;;;0.60;;
44981;SDS011;30716;41.740;-70.400;2022-09-25T04:32:11;1.25;;;0.70;;
44981;SDS011;30716;41.740;-70.400;2022-09-25T04:34:57;2.13;;;1.00;;
44981;SDS011;30716;41.740;-70.400;2022-09-25T04:37:24;0.88;;;0.57;;
44981;SDS011;30716;41.740;-70.400;2022-09-25T04:39:54;0.98;;;0.60;;
44981;SDS011;30716;41.740;-70.400;2022-09-25T04:42:21;2.00;;;0.90;;
44981;SDS011;30716;41.740;-70.400;2022-09-25T04:44:49;1.30;;;0.60;;
44981;SDS011;30716;41.740;-70.400;2022-09-25T04:47:23;0.95;;;0.60;;
44981;SDS011;30716;41.740;-70.400;2022-09-25T04:49:51;1.10;;;0.60;;
44981;SDS011;30716;41.740;-70.400;2022-09-25T04:52:18;1.38;;;0.50;;
44981;SDS011;30716;41.740;-70.400;2022-09-25T04:54:45;1.98;;;0.50;;
44981;SDS011;30716;41.740;-70.400;2022-09-25T04:57:15;1.02;;;0.60;;
44981;SDS011;30716;41.740;-70.400;2022-09-25T04:59:43;0.57;;;0.40;;
44981;SDS011;30716;41.740;-70.400;2022-09-25T05:02:12;1.08;;;0.60;;
44981;SDS011;30716;41.740;-70.400;2022-09-25T05:04:39;1.80;;;1.00;;
44981;SDS011;30716;41.740;-70.400;2022-09-25T05:07:05;0.73;;;0.50;;
44981;SDS011;30716;41.740;-70.400;2022-09-25T05:09:31;1.05;;;0.60;;
44981;SDS011;30716;41.740;-70.400;2022-09-25T05:11:57;0.93;;;0.60;;
44981;SDS011;30716;41.740;-70.400;2022-09-25T05:14:24;0.55;;;0.40;;
44981;SDS011;30716;41.740;-70.400;2022-09-25T05:16:50;1.05;;;0.50;;
44981;SDS011;30716;41.740;-70.400;2022-09-25T05:19:16;1.45;;;0.63;;
44981;SDS011;30716;41.740;-70.400;2022-09-25T05:21:42;0.90;;;0.52;;
44981;SDS011;30716;41.740;-70.400;2022-09-25T05:24:08;0.75;;;0.40;;
44981;SDS011;30716;41.740;-70.400;2022-09-25T05:26:35;1.80;;;0.77;;
44981;SDS011;30716;41.740;-70.400;2022-09-25T05:29:02;0.88;;;0.60;;
44981;SDS011;30716;41.740;-70.400;2022-09-25T05:31:30;1.65;;;0.50;;
44981;SDS011;30716;41.740;-70.400;2022-09-25T05:33:56;0.73;;;0.50;;
44981;SDS011;30716;41.740;-70.400;2022-09-25T05:36:22;1.20;;;0.60;;
44981;SDS011;30716;41.740;-70.400;2022-09-25T05:38:49;0.80;;;0.50;;
44981;SDS011;30716;41.740;-70.400;2022-09-25T05:41:15;0.82;;;0.60;;
44981;SDS011;30716;41.740;-70.400;2022-09-25T05:43:42;0.47;;;0.35;;
44981;SDS011;30716;41.740;-70.400;2022-09-25T05:46:12;1.38;;;0.60;;
44981;SDS011;30716;41.740;-70.400;2022-09-25T05:48:40;0.60;;;0.35;;
44981;SDS011;30716;41.740;-70.400;2022-09-25T05:51:06;1.00;;;0.60;;
44981;SDS011;30716;41.740;-70.400;2022-09-25T05:53:33;0.82;;;0.50;;
44981;SDS011;30716;41.740;-70.400;2022-09-25T05:56:00;0.65;;;0.50;;
44981;SDS011;30716;41.740;-70.400;2022-09-25T05:58:28;1.67;;;0.30;;
44981;SDS011;30716;41.740;-70.400;2022-09-25T06:01:01;1.17;;;0.63;;
44981;SDS011;30716;41.740;-70.400;2022-09-25T06:03:29;1.85;;;0.60;;
44981;SDS011;30716;41.740;-70.400;2022-09-25T06:05:56;0.70;;;0.50;;
44981;SDS011;30716;41.740;-70.400;2022-09-25T06:08:23;1.55;;;1.05;;
44981;SDS011;30716;41.740;-70.400;2022-09-25T06:10:50;0.52;;;0.47;;
44981;SDS011;30716;41.740;-70.400;2022-09-25T06:13:20;0.32;;;0.30;;
44981;SDS011;30716;41.740;-70.400;2022-09-25T06:15:48;0.55;;;0.40;;
44981;SDS011;30716;41.740;-70.400;2022-09-25T06:18:16;0.70;;;0.50;;
44981;SDS011;30716;41.740;-70.400;2022-09-25T06:20:45;0.80;;;0.50;;
44981;SDS011;30716;41.740;-70.400;2022-09-25T06:23:11;0.50;;;0.40;;
44981;SDS011;30716;41.740;-70.400;2022-09-25T06:25:38;0.70;;;0.45;;
44981;SDS011;30716;41.740;-70.400;2022-09-25T06:28:05;0.75;;;0.40;;
44981;SDS011;30716;41.740;-70.400;2022-09-25T06:30:33;0.77;;;0.38;;
44981;SDS011;30716;41.740;-70.400;2022-09-25T06:33:01;0.95;;;0.55;;
44981;SDS011;30716;41.740;-70.400;2022-09-25T06:35:34;1.30;;;0.82;;
44981;SDS011;30716;41.740;-70.400;2022-09-25T06:38:01;0.77;;;0.52;;
44981;SDS011;30716;41.740;-70.400;2022-09-25T06:40:30;1.05;;;0.50;;
44981;SDS011;30716;41.740;-70.400;2022-09-25T06:43:00;0.77;;;0.40;;
44981;SDS011;30716;41.740;-70.400;2022-09-25T06:45:28;0.90;;;0.47;;
44981;SDS011;30716;41.740;-70.400;2022-09-25T06:48:01;0.52;;;0.30;;
44981;SDS011;30716;41.740;-70.400;2022-09-25T06:50:31;0.63;;;0.50;;
44981;SDS011;30716;41.740;-70.400;2022-09-25T06:53:04;1.05;;;0.57;;
44981;SDS011;30716;41.740;-70.400;2022-09-25T06:55:30;0.95;;;0.50;;
44981;SDS011;30716;41.740;-70.400;2022-09-25T06:57:56;0.50;;;0.30;;
44981;SDS011;30716;41.740;-70.400;2022-09-25T07:00:23;0.47;;;0.30;;
44981;SDS011;30716;41.740;-70.400;2022-09-25T07:02:49;1.15;;;0.50;;
44981;SDS011;30716;41.740;-70.400;2022-09-25T07:05:33;0.93;;;0.50;;
44981;SDS011;30716;41.740;-70.400;2022-09-25T07:07:59;0.98;;;0.50;;
44981;SDS011;30716;41.740;-70.400;2022-09-25T07:10:26;0.88;;;0.47;;
44981;SDS011;30716;41.740;-70.400;2022-09-25T07:12:52;0.50;;;0.40;;
44981;SDS011;30716;41.740;-70.400;2022-09-25T07:15:18;0.75;;;0.50;;
44981;SDS011;30716;41.740;-70.400;2022-09-25T07:17:44;0.57;;;0.40;;
44981;SDS011;30716;41.740;-70.400;2022-09-25T07:20:11;0.85;;;0.45;;
44981;SDS011;30716;41.740;-70.400;2022-09-25T07:22:40;0.82;;;0.40;;
44981;SDS011;30716;41.740;-70.400;2022-09-25T07:25:07;0.93;;;0.40;;
44981;SDS011;30716;41.740;-70.400;2022-09-25T07:27:34;0.50;;;0.40;;
44981;SDS011;30716;41.740;-70.400;2022-09-25T07:30:01;0.60;;;0.40;;
44981;SDS011;30716;41.740;-70.400;2022-09-25T07:32:28;0.65;;;0.40;;
44981;SDS011;30716;41.740;-70.400;2022-09-25T07:34:56;0.93;;;0.40;;
44981;SDS011;30716;41.740;-70.400;2022-09-25T07:37:22;0.50;;;0.40;;
44981;SDS011;30716;41.740;-70.400;2022-09-25T07:39:49;0.95;;;0.43;;
44981;SDS011;30716;41.740;-70.400;2022-09-25T07:42:15;0.50;;;0.40;;
44981;SDS011;30716;41.740;-70.400;2022-09-25T07:44:42;0.70;;;0.40;;
44981;SDS011;30716;41.740;-70.400;2022-09-25T07:47:09;1.10;;;0.40;;
44981;SDS011;30716;41.740;-70.400;2022-09-25T07:49:39;0.73;;;0.40;;
44981;SDS011;30716;41.740;-70.400;2022-09-25T07:52:05;0.65;;;0.40;;
44981;SDS011;30716;41.740;-70.400;2022-09-25T07:54:31;0.38;;;0.30;;
44981;SDS011;30716;41.740;-70.400;2022-09-25T07:57:00;0.52;;;0.30;;
44981;SDS011;30716;41.740;-70.400;2022-09-25T07:59:26;0.45;;;0.22;;
44981;SDS011;30716;41.740;-70.400;2022-09-25T08:01:53;0.77;;;0.35;;
44981;SDS011;30716;41.740;-70.400;2022-09-25T08:04:19;1.02;;;0.60;;
44981;SDS011;30716;41.740;-70.400;2022-09-25T08:06:45;0.40;;;0.20;;
44981;SDS011;30716;41.740;-70.400;2022-09-25T08:09:11;0.52;;;0.47;;
44981;SDS011;30716;41.740;-70.400;2022-09-25T08:11:37;0.80;;;0.60;;
44981;SDS011;30716;41.740;-70.400;2022-09-25T08:14:03;0.60;;;0.28;;
44981;SDS011;30716;41.740;-70.400;2022-09-25T08:16:29;0.57;;;0.40;;
44981;SDS011;30716;41.740;-70.400;2022-09-25T08:18:56;0.43;;;0.32;;
44981;SDS011;30716;41.740;-70.400;2022-09-25T08:21:22;0.68;;;0.40;;
44981;SDS011;30716;41.740;-70.400;2022-09-25T08:23:49;0.35;;;0.20;;
44981;SDS011;30716;41.740;-70.400;2022-09-25T08:26:18;0.45;;;0.30;;
44981;SDS011;30716;41.740;-70.400;2022-09-25T08:28:45;0.50;;;0.40;;
44981;SDS011;30716;41.740;-70.400;2022-09-25T08:31:12;0.35;;;0.25;;
44981;SDS011;30716;41.740;-70.400;2022-09-25T08:33:38;0.47;;;0.35;;
44981;SDS011;30716;41.740;-70.400;2022-09-25T08:36:08;0.30;;;0.30;;
44981;SDS011;30716;41.740;-70.400;2022-09-25T08:38:34;0.60;;;0.43;;
44981;SDS011;30716;41.740;-70.400;2022-09-25T08:41:02;0.80;;;0.50;;
44981;SDS011;30716;41.740;-70.400;2022-09-25T08:43:36;0.82;;;0.40;;
44981;SDS011;30716;41.740;-70.400;2022-09-25T08:46:13;1.98;;;0.35;;
44981;SDS011;30716;41.740;-70.400;2022-09-25T08:49:19;0.55;;;0.30;;
44981;SDS011;30716;41.740;-70.400;2022-09-25T08:51:49;0.60;;;0.40;;
44981;SDS011;30716;41.740;-70.400;2022-09-25T08:54:19;0.32;;;0.30;;
44981;SDS011;30716;41.740;-70.400;2022-09-25T08:56:52;0.85;;;0.52;;
44981;SDS011;30716;41.740;-70.400;2022-09-25T08:59:47;1.20;;;0.57;;
44981;SDS011;30716;41.740;-70.400;2022-09-25T09:02:25;0.38;;;0.20;;
44981;SDS011;30716;41.740;-70.400;2022-09-25T09:05:14;0.63;;;0.40;;
44981;SDS011;30716;41.740;-70.400;2022-09-25T09:07:57;0.63;;;0.50;;
44981;SDS011;30716;41.740;-70.400;2022-09-25T09:10:33;0.30;;;0.22;;
44981;SDS011;30716;41.740;-70.400;2022-09-25T09:13:16;0.60;;;0.28;;
44981;SDS011;30716;41.740;-70.400;2022-09-25T09:18:27;0.45;;;0.32;;
44981;SDS011;30716;41.740;-70.400;2022-09-25T09:20:55;0.43;;;0.20;;
44981;SDS011;30716;41.740;-70.400;2022-09-25T09:23:32;0.55;;;0.32;;
44981;SDS011;30716;41.740;-70.400;2022-09-25T09:26:07;1.08;;;0.63;;
44981;SDS011;30716;41.740;-70.400;2022-09-25T09:28:48;0.40;;;0.22;;
44981;SDS011;30716;41.740;-70.400;2022-09-25T09:39:28;0.45;;;0.30;;
44981;SDS011;30716;41.740;-70.400;2022-09-25T09:47:47;0.32;;;0.20;;
44981;SDS011;30716;41.740;-70.400;2022-09-25T09:50:26;0.50;;;0.40;;
44981;SDS011;30716;41.740;-70.400;2022-09-25T09:56:09;0.47;;;0.20;;
44981;SDS011;30716;41.740;-70.400;2022-09-25T09:58:46;0.47;;;0.30;;
44981;SDS011;30716;41.740;-70.400;2022-09-25T10:01:14;0.40;;;0.30;;
44981;SDS011;30716;41.740;-70.400;2022-09-25T10:03:43;0.40;;;0.30;;
44981;SDS011;30716;41.740;-70.400;2022-09-25T10:06:14;0.50;;;0.30;;
44981;SDS011;30716;41.740;-70.400;2022-09-25T10:08:42;0.65;;;0.28;;
44981;SDS011;30716;41.740;-70.400;2022-09-25T10:11:13;0.43;;;0.20;;
44981;SDS011;30716;41.740;-70.400;2022-09-25T10:21:41;0.52;;;0.28;;
44981;SDS011;30716;41.740;-70.400;2022-09-25T10:24:44;0.77;;;0.40;;
44981;SDS011;30716;41.740;-70.400;2022-09-25T10:27:20;0.52;;;0.30;;
44981;SDS011;30716;41.740;-70.400;2022-09-25T10:30:04;0.88;;;0.22;;
44981;SDS011;30716;41.740;-70.400;2022-09-25T10:35:27;0.57;;;0.30;;
44981;SDS011;30716;41.740;-70.400;2022-09-25T10:38:02;0.38;;;0.20;;
44981;SDS011;30716;41.740;-70.400;2022-09-25T10:40:36;0.28;;;0.20;;
44981;SDS011;30716;41.740;-70.400;2022-09-25T10:43:14;0.45;;;0.28;;
44981;SDS011;30716;41.740;-70.400;2022-09-25T10:45:47;0.50;;;0.40;;
44981;SDS011;30716;41.740;-70.400;2022-09-25T10:48:26;0.55;;;0.30;;
44981;SDS011;30716;41.740;-70.400;2022-09-25T10:51:14;0.43;;;0.30;;
44981;SDS011;30716;41.740;-70.400;2022-09-25T10:53:49;0.45;;;0.30;;
44981;SDS011;30716;41.740;-70.400;2022-09-25T10:56:34;0.60;;;0.30;;
44981;SDS011;30716;41.740;-70.400;2022-09-25T10:59:07;1.45;;;0.40;;
44981;SDS011;30716;41.740;-70.400;2022-09-25T11:01:45;0.77;;;0.30;;
44981;SDS011;30716;41.740;-70.400;2022-09-25T11:06:50;0.40;;;0.22;;
44981;SDS011;30716;41.740;-70.400;2022-09-25T11:09:19;0.40;;;0.32;;
44981;SDS011;30716;41.740;-70.400;2022-09-25T11:11:47;0.55;;;0.30;;
44981;SDS011;30716;41.740;-70.400;2022-09-25T11:14:37;0.88;;;0.47;;
44981;SDS011;30716;41.740;-70.400;2022-09-25T11:17:29;1.60;;;0.40;;
44981;SDS011;30716;41.740;-70.400;2022-09-25T11:20:20;0.35;;;0.20;;
44981;SDS011;30716;41.740;-70.400;2022-09-25T11:28:20;0.28;;;0.17;;
44981;SDS011;30716;41.740;-70.400;2022-09-25T11:30:56;0.55;;;0.30;;
44981;SDS011;30716;41.740;-70.400;2022-09-25T11:33:42;0.32;;;0.20;;
44981;SDS011;30716;41.740;-70.400;2022-09-25T11:36:27;0.20;;;0.20;;
44981;SDS011;30716;41.740;-70.400;2022-09-25T11:39:02;0.75;;;0.20;;
44981;SDS011;30716;41.740;-70.400;2022-09-25T11:42:00;2.15;;;0.40;;
44981;SDS011;30716;41.740;-70.400;2022-09-25T11:44:42;0.75;;;0.20;;
44981;SDS011;30716;41.740;-70.400;2022-09-25T11:50:01;0.73;;;0.30;;
44981;SDS011;30716;41.740;-70.400;2022-09-25T11:52:29;0.65;;;0.32;;
44981;SDS011;30716;41.740;-70.400;2022-09-25T11:57:36;0.30;;;0.20;;
44981;SDS011;30716;41.740;-70.400;2022-09-25T12:08:44;0.30;;;0.22;;
44981;SDS011;30716;41.740;-70.400;2022-09-25T12:19:52;0.30;;;0.30;;
44981;SDS011;30716;41.740;-70.400;2022-09-25T12:25:39;0.30;;;0.20;;
44981;SDS011;30716;41.740;-70.400;2022-09-25T12:28:19;0.38;;;0.30;;
44981;SDS011;30716;41.740;-70.400;2022-09-25T12:31:12;0.47;;;0.22;;
44981;SDS011;30716;41.740;-70.400;2022-09-25T12:37:04;0.17;;;0.10;;
44981;SDS011;30716;41.740;-70.400;2022-09-25T12:39:54;0.43;;;0.20;;
44981;SDS011;30716;41.740;-70.400;2022-09-25T12:45:21;0.30;;;0.20;;
44981;SDS011;30716;41.740;-70.400;2022-09-25T12:48:13;1.00;;;0.30;;
44981;SDS011;30716;41.740;-70.400;2022-09-25T12:50:58;0.30;;;0.20;;
44981;SDS011;30716;41.740;-70.400;2022-09-25T12:53:38;0.65;;;0.40;;
44981;SDS011;30716;41.740;-70.400;2022-09-25T12:56:14;0.50;;;0.17;;
44981;SDS011;30716;41.740;-70.400;2022-09-25T13:04:40;0.38;;;0.20;;
44981;SDS011;30716;41.740;-70.400;2022-09-25T13:07:13;0.47;;;0.20;;
44981;SDS011;30716;41.740;-70.400;2022-09-25T13:10:00;1.20;;;0.30;;
44981;SDS011;30716;41.740;-70.400;2022-09-25T13:12:37;0.40;;;0.20;;
44981;SDS011;30716;41.740;-70.400;2022-09-25T13:15:11;0.60;;;0.28;;
44981;SDS011;30716;41.740;-70.400;2022-09-25T13:17:41;0.63;;;0.30;;
44981;SDS011;30716;41.740;-70.400;2022-09-25T13:25:38;0.30;;;0.22;;
44981;SDS011;30716;41.740;-70.400;2022-09-25T13:28:16;0.60;;;0.47;;
44981;SDS011;30716;41.740;-70.400;2022-09-25T13:33:25;0.60;;;0.20;;
44981;SDS011;30716;41.740;-70.400;2022-09-25T13:36:09;0.30;;;0.20;;
44981;SDS011;30716;41.740;-70.400;2022-09-25T13:38:59;0.28;;;0.20;;
44981;SDS011;30716;41.740;-70.400;2022-09-25T13:42:07;0.38;;;0.20;;
44981;SDS011;30716;41.740;-70.400;2022-09-25T13:50:34;0.35;;;0.15;;
44981;SDS011;30716;41.740;-70.400;2022-09-25T13:55:38;0.35;;;0.20;;
44981;SDS011;30716;41.740;-70.400;2022-09-25T13:58:18;0.22;;;0.17;;
44981;SDS011;30716;41.740;-70.400;2022-09-25T14:00:50;0.10;;;0.10;;
44981;SDS011;30716;41.740;-70.400;2022-09-25T14:06:16;0.25;;;0.20;;
44981;SDS011;30716;41.740;-70.400;2022-09-25T14:08:47;0.47;;;0.28;;
44981;SDS011;30716;41.740;-70.400;2022-09-25T14:11:16;0.38;;;0.20;;
44981;SDS011;30716;41.740;-70.400;2022-09-25T14:13:49;0.28;;;0.20;;
44981;SDS011;30716;41.740;-70.400;2022-09-25T14:18:56;0.30;;;0.20;;
44981;SDS011;30716;41.740;-70.400;2022-09-25T14:21:24;0.20;;;0.20;;
44981;SDS011;30716;41.740;-70.400;2022-09-25T14:23:56;0.25;;;0.10;;
44981;SDS011;30716;41.740;-70.400;2022-09-25T14:26:36;0.55;;;0.22;;
44981;SDS011;30716;41.740;-70.400;2022-09-25T14:29:15;0.40;;;0.20;;
44981;SDS011;30716;41.740;-70.400;2022-09-25T14:32:06;0.20;;;0.20;;
44981;SDS011;30716;41.740;-70.400;2022-09-25T14:37:15;0.43;;;0.30;;
44981;SDS011;30716;41.740;-70.400;2022-09-25T14:47:58;0.52;;;0.35;;
44981;SDS011;30716;41.740;-70.400;2022-09-25T14:50:29;0.17;;;0.10;;
44981;SDS011;30716;41.740;-70.400;2022-09-25T14:53:00;0.40;;;0.20;;
44981;SDS011;30716;41.740;-70.400;2022-09-25T14:55:40;0.20;;;0.20;;
44981;SDS011;30716;41.740;-70.400;2022-09-25T14:58:13;0.57;;;0.20;;
44981;SDS011;30716;41.740;-70.400;2022-09-25T15:00:48;0.45;;;0.30;;
44981;SDS011;30716;41.740;-70.400;2022-09-25T15:03:18;0.43;;;0.25;;
44981;SDS011;30716;41.740;-70.400;2022-09-25T15:05:49;0.30;;;0.20;;
44981;SDS011;30716;41.740;-70.400;2022-09-25T15:08:22;0.20;;;0.20;;
44981;SDS011;30716;41.740;-70.400;2022-09-25T15:11:01;0.47;;;0.20;;
44981;SDS011;30716;41.740;-70.400;2022-09-25T15:13:39;0.65;;;0.20;;
44981;SDS011;30716;41.740;-70.400;2022-09-25T15:16:10;0.28;;;0.20;;
44981;SDS011;30716;41.740;-70.400;2022-09-25T15:19:06;0.60;;;0.32;;
44981;SDS011;30716;41.740;-70.400;2022-09-25T15:21:42;0.43;;;0.20;;
44981;SDS011;30716;41.740;-70.400;2022-09-25T15:24:10;0.82;;;0.30;;
44981;SDS011;30716;41.740;-70.400;2022-09-25T15:26:45;0.25;;;0.13;;
44981;SDS011;30716;41.740;-70.400;2022-09-25T15:29:15;0.30;;;0.20;;
44981;SDS011;30716;41.740;-70.400;2022-09-25T15:31:46;0.25;;;0.10;;
44981;SDS011;30716;41.740;-70.400;2022-09-25T15:36:46;0.40;;;0.10;;
44981;SDS011;30716;41.740;-70.400;2022-09-25T15:39:16;0.47;;;0.25;;
44981;SDS011;30716;41.740;-70.400;2022-09-25T15:41:46;0.40;;;0.20;;
44981;SDS011;30716;41.740;-70.400;2022-09-25T15:44:19;0.32;;;0.20;;
44981;SDS011;30716;41.740;-70.400;2022-09-25T15:46:50;0.30;;;0.20;;
44981;SDS011;30716;41.740;-70.400;2022-09-25T15:49:39;0.22;;;0.20;;
44981;SDS011;30716;41.740;-70.400;2022-09-25T15:52:27;0.63;;;0.28;;
44981;SDS011;30716;41.740;-70.400;2022-09-25T15:55:05;0.20;;;0.20;;
44981;SDS011;30716;41.740;-70.400;2022-09-25T15:57:40;0.55;;;0.40;;
44981;SDS011;30716;41.740;-70.400;2022-09-25T16:00:08;0.68;;;0.30;;
44981;SDS011;30716;41.740;-70.400;2022-09-25T16:03:21;0.43;;;0.20;;
44981;SDS011;30716;41.740;-70.400;2022-09-25T16:06:11;0.55;;;0.30;;
44981;SDS011;30716;41.740;-70.400;2022-09-25T16:08:39;0.38;;;0.30;;
44981;SDS011;30716;41.740;-70.400;2022-09-25T16:11:16;0.10;;;0.10;;
44981;SDS011;30716;41.740;-70.400;2022-09-25T16:14:32;1.23;;;0.20;;
44981;SDS011;30716;41.740;-70.400;2022-09-25T16:16:47;0.25;;;0.15;;
44981;SDS011;30716;41.740;-70.400;2022-09-25T16:21:54;0.30;;;0.20;;
44981;SDS011;30716;41.740;-70.400;2022-09-25T16:24:23;2.70;;;0.50;;
44981;SDS011;30716;41.740;-70.400;2022-09-25T16:27:16;0.40;;;0.22;;
44981;SDS011;30716;41.740;-70.400;2022-09-25T16:29:48;0.10;;;0.10;;
44981;SDS011;30716;41.740;-70.400;2022-09-25T16:32:15;0.20;;;0.20;;
44981;SDS011;30716;41.740;-70.400;2022-09-25T16:34:55;0.32;;;0.20;;
44981;SDS011;30716;41.740;-70.400;2022-09-25T16:37:34;0.43;;;0.17;;
44981;SDS011;30716;41.740;-70.400;2022-09-25T16:42:45;0.20;;;0.10;;
44981;SDS011;30716;41.740;-70.400;2022-09-25T16:47:41;0.55;;;0.30;;
44981;SDS011;30716;41.740;-70.400;2022-09-25T16:50:11;0.60;;;0.30;;
44981;SDS011;30716;41.740;-70.400;2022-09-25T16:52:38;0.63;;;0.43;;
44981;SDS011;30716;41.740;-70.400;2022-09-25T16:55:13;0.28;;;0.20;;
44981;SDS011;30716;41.740;-70.400;2022-09-25T16:57:51;0.40;;;0.20;;
44981;SDS011;30716;41.740;-70.400;2022-09-25T17:00:21;0.40;;;0.20;;
44981;SDS011;30716;41.740;-70.400;2022-09-25T17:02:49;0.57;;;0.35;;
44981;SDS011;30716;41.740;-70.400;2022-09-25T17:05:23;0.30;;;0.20;;
44981;SDS011;30716;41.740;-70.400;2022-09-25T17:07:52;0.17;;;0.17;;
44981;SDS011;30716;41.740;-70.400;2022-09-25T17:10:21;0.50;;;0.20;;
44981;SDS011;30716;41.740;-70.400;2022-09-25T17:12:50;0.82;;;0.30;;
44981;SDS011;30716;41.740;-70.400;2022-09-25T17:15:18;0.10;;;0.10;;
44981;SDS011;30716;41.740;-70.400;2022-09-25T17:17:57;0.43;;;0.30;;
44981;SDS011;30716;41.740;-70.400;2022-09-25T17:20:25;0.40;;;0.20;;